This is the latest recevied weather packets stored in our database for station/object CQ0XPG-11. If no packets are shown the sender has not sent any weather packets the latest 1 day(s).
| Time | Temp. | Humidity | Pressure | Rain* | Wind** | Luminosity | Snow |
|---|---|---|---|---|---|---|---|
| 1778014139 | 10.56° C | 100% | 1007.5 hPa | 0 mm | 0.45 m/s, 337° | - | - |
| 1778013820 | 10.56° C | 100% | 1007.5 hPa | 0 mm | 0 m/s | - | - |
| 1778013540 | 10.56° C | 100% | 1007.5 hPa | 0 mm | 0 m/s | - | - |
| 1778013214 | 11.11° C | 100% | 1007.4 hPa | 0 mm | 0 m/s | - | - |
| 1778012934 | 11.11° C | 100% | 1007.3 hPa | 0 mm | 0.45 m/s, 337° | - | - |
| 1778012608 | 11.67° C | 100% | 1007.3 hPa | 0 mm | 0 m/s | - | - |
| 1778012320 | 11.67° C | 100% | 1007.2 hPa | 0 mm | 0 m/s | - | - |
| 1778012012 | 11.67° C | 100% | 1007.2 hPa | 0 mm | 0 m/s | - | - |
| 1778011714 | 11.67° C | 100% | 1007.2 hPa | 0 mm | 1.34 m/s, 337° | - | - |
| 1778011409 | 12.22° C | 100% | 1007.1 hPa | 0 mm | 0 m/s | - | - |
| 1778011114 | 12.22° C | 100% | 1007.1 hPa | 0 mm | 0.45 m/s, 337° | - | - |
| 1778010815 | 12.22° C | 100% | 1007.1 hPa | 0 mm | 0 m/s | - | - |
| 1778010501 | 12.78° C | 100% | 1007 hPa | 0 mm | 0.89 m/s, 337° | - | - |
| 1778009897 | 12.78° C | 100% | 1006.8 hPa | 0 mm | 1.79 m/s, 337° | - | - |
| 1778009582 | 12.78° C | 100% | 1006.7 hPa | 0 mm | 0.45 m/s, 337° | - | - |
| 1778008679 | 13.89° C | 90% | 1006.5 hPa | 0 mm | 3.58 m/s, 337° | - | - |
| 1778007763 | 14.44° C | 82% | 1006.6 hPa | 0 mm | 2.24 m/s, 337° | - | - |
| 1778007157 | 15° C | 79% | 1006.5 hPa | 0 mm | 0.89 m/s, 337° | - | - |
| 1778006879 | 15° C | 76% | 1006.4 hPa | 0 mm | 1.79 m/s, 337° | - | - |
| 1778006558 | 15° C | 77% | 1006.4 hPa | 0 mm | 1.34 m/s, 337° | - | - |
| 1778006256 | 15.56° C | 75% | 1006.2 hPa | 0 mm | 2.24 m/s, 337° | - | - |
| 1778005951 | 15.56° C | 73% | 1006.2 hPa | 0 mm | 2.24 m/s, 337° | - | - |
| 1778005664 | 15.56° C | 72% | 1006.2 hPa | 0 mm | 1.79 m/s, 337° | - | - |
| 1778005337 | 15.56° C | 69% | 1006.1 hPa | 0 mm | 1.34 m/s, 337° | - | - |
| 1778005043 | 16.11° C | 70% | 1006.1 hPa | 0 mm | 1.79 m/s, 337° | - | - |
* Rain since midnight (hover to see other rain measurements)
** Current wind speed in m/s (hover to see current wind gust speed)